sensor_id;sensor_type;location;lat;lon;timestamp;pressure;altitude;pressure_sealevel;temperature;humidity
50322;BME280;36227;53.366;-1.426;2022-10-04T00:01:08;75940.26;;;-215.39;100.00
50322;BME280;36227;53.366;-1.426;2022-10-04T00:03:34;75920.81;;;-215.39;100.00
50322;BME280;36227;53.366;-1.426;2022-10-04T00:05:58;75919.42;;;-215.15;100.00
50322;BME280;36227;53.366;-1.426;2022-10-04T00:08:27;75879.37;;;-215.39;100.00
50322;BME280;36227;53.366;-1.426;2022-10-04T00:10:47;75876.97;;;-215.39;100.00
50322;BME280;36227;53.366;-1.426;2022-10-04T00:13:23;75885.81;;;-215.15;100.00
50322;BME280;36227;53.366;-1.426;2022-10-04T00:15:38;75839.57;;;-215.39;100.00
50322;BME280;36227;53.366;-1.426;2022-10-04T00:18:20;75883.41;;;-214.91;100.00
50322;BME280;36227;53.366;-1.426;2022-10-04T00:25:20;75877.09;;;-215.63;100.00
50322;BME280;36227;53.366;-1.426;2022-10-04T00:30:20;75865.09;;;-215.39;100.00
50322;BME280;36227;53.366;-1.426;2022-10-04T00:32:46;75831.11;;;-215.63;100.00
50322;BME280;36227;53.366;-1.426;2022-10-04T00:35:01;75887.45;;;-214.91;100.00
50322;BME280;36227;53.366;-1.426;2022-10-04T00:37:26;75881.01;;;-215.15;100.00
50322;BME280;36227;53.366;-1.426;2022-10-04T00:40:02;75880.50;;;-214.91;100.00
50322;BME280;36227;53.366;-1.426;2022-10-04T00:42:30;75882.53;;;-214.91;100.00
50322;BME280;36227;53.366;-1.426;2022-10-04T00:44:48;75896.55;;;-214.91;100.00
50322;BME280;36227;53.366;-1.426;2022-10-04T00:47:17;75874.06;;;-215.87;100.00
50322;BME280;36227;53.366;-1.426;2022-10-04T00:49:38;75802.05;;;-215.63;100.00
50322;BME280;36227;53.366;-1.426;2022-10-04T00:52:02;75774.51;;;-215.39;100.00
50322;BME280;36227;53.366;-1.426;2022-10-04T00:54:29;75838.31;;;-215.15;100.00
50322;BME280;36227;53.366;-1.426;2022-10-04T00:56:52;75862.31;;;-214.91;100.00
50322;BME280;36227;53.366;-1.426;2022-10-04T00:59:24;75855.99;;;-214.91;100.00
50322;BME280;36227;53.366;-1.426;2022-10-04T01:01:42;75859.15;;;-214.91;100.00
50322;BME280;36227;53.366;-1.426;2022-10-04T01:04:23;75843.87;;;-214.91;100.00
50322;BME280;36227;53.366;-1.426;2022-10-04T01:06:34;75863.20;;;-214.67;100.00
50322;BME280;36227;53.366;-1.426;2022-10-04T01:09:03;75839.07;;;-215.63;100.00
50322;BME280;36227;53.366;-1.426;2022-10-04T01:11:25;75806.47;;;-215.39;100.00
50322;BME280;36227;53.366;-1.426;2022-10-04T01:13:52;75817.59;;;-214.91;100.00
50322;BME280;36227;53.366;-1.426;2022-10-04T01:16:17;75817.08;;;-214.91;100.00
50322;BME280;36227;53.366;-1.426;2022-10-04T01:18:40;75798.13;;;-214.91;100.00
50322;BME280;36227;53.366;-1.426;2022-10-04T01:21:09;75785.75;;;-214.91;100.00
50322;BME280;36227;53.366;-1.426;2022-10-04T01:23:32;75801.29;;;-214.67;100.00
50322;BME280;36227;53.366;-1.426;2022-10-04T01:25:55;75771.86;;;-214.91;100.00
50322;BME280;36227;53.366;-1.426;2022-10-04T01:28:21;75769.58;;;-214.91;100.00
50322;BME280;36227;53.366;-1.426;2022-10-04T01:30:47;75764.02;;;-215.39;100.00
50322;BME280;36227;53.366;-1.426;2022-10-04T01:33:12;75740.78;;;-215.39;100.00
50322;BME280;36227;53.366;-1.426;2022-10-04T01:35:38;75735.72;;;-215.15;100.00
50322;BME280;36227;53.366;-1.426;2022-10-04T01:38:04;75720.31;;;-214.91;100.00
50322;BME280;36227;53.366;-1.426;2022-10-04T01:40:28;75709.07;;;-215.15;100.00
50322;BME280;36227;53.366;-1.426;2022-10-04T01:42:58;75705.03;;;-214.91;100.00
50322;BME280;36227;53.366;-1.426;2022-10-04T01:45:23;75713.49;;;-215.15;100.00
50322;BME280;36227;53.366;-1.426;2022-10-04T01:47:48;75723.09;;;-214.91;100.00
50322;BME280;36227;53.366;-1.426;2022-10-04T01:50:14;75712.98;;;-214.91;100.00
50322;BME280;36227;53.366;-1.426;2022-10-04T01:52:40;75698.84;;;-215.15;100.00
50322;BME280;36227;53.366;-1.426;2022-10-04T01:55:04;75684.43;;;-216.11;100.00
50322;BME280;36227;53.366;-1.426;2022-10-04T01:57:32;75638.45;;;-215.87;100.00
50322;BME280;36227;53.366;-1.426;2022-10-04T01:59:55;75670.92;;;-215.39;100.00
50322;BME280;36227;53.366;-1.426;2022-10-04T02:02:21;75679.38;;;-215.39;100.00
50322;BME280;36227;53.366;-1.426;2022-10-04T02:04:42;75668.64;;;-215.39;100.00
50322;BME280;36227;53.366;-1.426;2022-10-04T02:07:12;75680.14;;;-215.15;100.00
50322;BME280;36227;53.366;-1.426;2022-10-04T02:09:34;75681.91;;;-214.91;100.00
50322;BME280;36227;53.366;-1.426;2022-10-04T02:11:57;75695.05;;;-214.91;100.00
50322;BME280;36227;53.366;-1.426;2022-10-04T02:14:25;75700.35;;;-214.91;100.00
50322;BME280;36227;53.366;-1.426;2022-10-04T02:16:50;75697.83;;;-215.39;100.00
50322;BME280;36227;53.366;-1.426;2022-10-04T02:19:13;75675.72;;;-215.87;100.00
50322;BME280;36227;53.366;-1.426;2022-10-04T02:21:38;75660.68;;;-215.39;100.00
50322;BME280;36227;53.366;-1.426;2022-10-04T02:24:05;75701.36;;;-215.15;100.00
50322;BME280;36227;53.366;-1.426;2022-10-04T02:26:29;75693.28;;;-215.15;100.00
50322;BME280;36227;53.366;-1.426;2022-10-04T02:28:55;75642.24;;;-215.39;100.00
50322;BME280;36227;53.366;-1.426;2022-10-04T02:31:21;75671.80;;;-214.91;100.00
50322;BME280;36227;53.366;-1.426;2022-10-04T02:33:47;75668.52;;;-215.15;100.00
50322;BME280;36227;53.366;-1.426;2022-10-04T02:36:11;75657.27;;;-215.15;100.00
50322;BME280;36227;53.366;-1.426;2022-10-04T02:38:41;75656.77;;;-214.91;100.00
50322;BME280;36227;53.366;-1.426;2022-10-04T02:41:05;75654.37;;;-215.87;100.00
50322;BME280;36227;53.366;-1.426;2022-10-04T02:43:33;75628.34;;;-215.39;100.00
50322;BME280;36227;53.366;-1.426;2022-10-04T02:45:54;75658.03;;;-215.15;100.00
50322;BME280;36227;53.366;-1.426;2022-10-04T02:48:27;75676.85;;;-214.91;100.00
50322;BME280;36227;53.366;-1.426;2022-10-04T02:50:47;75672.81;;;-214.91;100.00
50322;BME280;36227;53.366;-1.426;2022-10-04T02:53:17;75648.81;;;-215.39;100.00
50322;BME280;36227;53.366;-1.426;2022-10-04T02:55:35;75643.88;;;-214.91;100.00
50322;BME280;36227;53.366;-1.426;2022-10-04T02:58:00;75648.30;;;-214.91;100.00
50322;BME280;36227;53.366;-1.426;2022-10-04T03:00:28;75641.86;;;-215.15;100.00
50322;BME280;36227;53.366;-1.426;2022-10-04T03:03:08;75657.40;;;-215.39;100.00
50322;BME280;36227;53.366;-1.426;2022-10-04T03:05:17;75658.16;;;-215.39;100.00
50322;BME280;36227;53.366;-1.426;2022-10-04T03:07:43;75636.18;;;-215.15;100.00
50322;BME280;36227;53.366;-1.426;2022-10-04T03:10:11;75595.62;;;-215.15;100.00
50322;BME280;36227;53.366;-1.426;2022-10-04T03:12:34;75613.94;;;-214.91;100.00
50322;BME280;36227;53.366;-1.426;2022-10-04T03:14:59;75577.81;;;-215.39;100.00
50322;BME280;36227;53.366;-1.426;2022-10-04T03:17:24;75605.23;;;-214.91;100.00
50322;BME280;36227;53.366;-1.426;2022-10-04T03:19:49;75613.31;;;-214.91;100.00
50322;BME280;36227;53.366;-1.426;2022-10-04T03:22:15;75621.52;;;-214.91;100.00
50322;BME280;36227;53.366;-1.426;2022-10-04T03:24:45;75608.64;;;-215.39;100.00
50322;BME280;36227;53.366;-1.426;2022-10-04T03:27:07;75606.87;;;-215.39;100.00
50322;BME280;36227;53.366;-1.426;2022-10-04T03:29:32;75625.56;;;-215.15;100.00
50322;BME280;36227;53.366;-1.426;2022-10-04T03:31:57;75602.57;;;-215.39;100.00
50322;BME280;36227;53.366;-1.426;2022-10-04T03:34:24;75596.76;;;-215.39;100.00
50322;BME280;36227;53.366;-1.426;2022-10-04T03:36:48;75594.11;;;-215.15;100.00
50322;BME280;36227;53.366;-1.426;2022-10-04T03:39:25;75567.45;;;-215.39;100.00
50322;BME280;36227;53.366;-1.426;2022-10-04T03:41:39;75608.89;;;-215.39;100.00
50322;BME280;36227;53.366;-1.426;2022-10-04T03:44:03;75592.72;;;-215.15;100.00
50322;BME280;36227;53.366;-1.426;2022-10-04T03:46:28;75579.08;;;-215.39;100.00
50322;BME280;36227;53.366;-1.426;2022-10-04T03:48:54;75584.00;;;-215.87;100.00
50322;BME280;36227;53.366;-1.426;2022-10-04T03:51:21;75605.86;;;-216.11;100.00
50322;BME280;36227;53.366;-1.426;2022-10-04T03:53:45;75595.37;;;-215.63;100.00
50322;BME280;36227;53.366;-1.426;2022-10-04T03:56:11;75610.66;;;-215.15;100.00
50322;BME280;36227;53.366;-1.426;2022-10-04T03:58:35;75574.28;;;-215.39;100.00
50322;BME280;36227;53.366;-1.426;2022-10-04T04:01:09;75591.08;;;-215.15;100.00
50322;BME280;36227;53.366;-1.426;2022-10-04T04:03:27;75541.94;;;-215.63;100.00
50322;BME280;36227;53.366;-1.426;2022-10-04T04:05:52;75569.35;;;-215.39;100.00
50322;BME280;36227;53.366;-1.426;2022-10-04T04:08:21;75569.85;;;-215.39;100.00
50322;BME280;36227;53.366;-1.426;2022-10-04T04:10:43;75571.50;;;-215.15;100.00
50322;BME280;36227;53.366;-1.426;2022-10-04T04:13:13;75557.73;;;-215.39;100.00
50322;BME280;36227;53.366;-1.426;2022-10-04T04:15:32;75531.83;;;-216.35;100.00
50322;BME280;36227;53.366;-1.426;2022-10-04T04:17:59;75503.03;;;-215.87;100.00
50322;BME280;36227;53.366;-1.426;2022-10-04T04:20:25;75507.20;;;-215.87;100.00
50322;BME280;36227;53.366;-1.426;2022-10-04T04:22:55;75514.52;;;-215.63;100.00
50322;BME280;36227;53.366;-1.426;2022-10-04T04:25:15;75477.13;;;-215.87;100.00
50322;BME280;36227;53.366;-1.426;2022-10-04T04:27:38;75545.73;;;-215.39;100.00
50322;BME280;36227;53.366;-1.426;2022-10-04T04:30:03;75554.57;;;-215.15;100.00
50322;BME280;36227;53.366;-1.426;2022-10-04T04:32:32;75571.62;;;-215.15;100.00
50322;BME280;36227;53.366;-1.426;2022-10-04T04:34:57;75518.57;;;-215.39;100.00
50322;BME280;36227;53.366;-1.426;2022-10-04T04:37:18;75521.22;;;-215.63;100.00
50322;BME280;36227;53.366;-1.426;2022-10-04T04:39:43;75527.79;;;-216.11;100.00
50322;BME280;36227;53.366;-1.426;2022-10-04T04:42:14;75573.77;;;-215.39;100.00
50322;BME280;36227;53.366;-1.426;2022-10-04T04:44:33;75492.92;;;-215.87;100.00
50322;BME280;36227;53.366;-1.426;2022-10-04T04:46:58;75490.39;;;-215.87;100.00
50322;BME280;36227;53.366;-1.426;2022-10-04T04:49:23;75494.94;;;-215.87;100.00
50322;BME280;36227;53.366;-1.426;2022-10-04T04:51:49;75489.13;;;-215.63;100.00
50322;BME280;36227;53.366;-1.426;2022-10-04T04:54:14;75485.09;;;-215.87;100.00
50322;BME280;36227;53.366;-1.426;2022-10-04T04:56:38;75512.38;;;-215.39;100.00
50322;BME280;36227;53.366;-1.426;2022-10-04T04:59:06;75504.54;;;-215.63;100.00
50322;BME280;36227;53.366;-1.426;2022-10-04T05:01:32;75496.21;;;-215.39;100.00
50322;BME280;36227;53.366;-1.426;2022-10-04T05:04:00;75489.38;;;-216.35;100.00
50322;BME280;36227;53.366;-1.426;2022-10-04T05:06:24;75429.63;;;-216.35;100.00
50322;BME280;36227;53.366;-1.426;2022-10-04T05:08:48;75426.10;;;-215.87;100.00
50322;BME280;36227;53.366;-1.426;2022-10-04T05:11:12;75444.54;;;-215.87;100.00
50322;BME280;36227;53.366;-1.426;2022-10-04T05:13:38;75419.40;;;-215.87;100.00
50322;BME280;36227;53.366;-1.426;2022-10-04T05:16:00;75425.59;;;-215.87;100.00
50322;BME280;36227;53.366;-1.426;2022-10-04T05:18:29;75447.07;;;-215.87;100.00
50322;BME280;36227;53.366;-1.426;2022-10-04T05:20:52;75378.85;;;-216.11;100.00
50322;BME280;36227;53.366;-1.426;2022-10-04T05:23:15;75367.99;;;-216.11;100.00
50322;BME280;36227;53.366;-1.426;2022-10-04T05:25:41;75339.57;;;-216.83;100.00
50322;BME280;36227;53.366;-1.426;2022-10-04T05:28:09;75360.91;;;-216.83;100.00
50322;BME280;36227;53.366;-1.426;2022-10-04T05:30:42;75347.40;;;-216.83;100.00
50322;BME280;36227;53.366;-1.426;2022-10-04T05:33:00;75399.32;;;-216.11;100.00
50322;BME280;36227;53.366;-1.426;2022-10-04T05:35:22;75362.30;;;-216.35;100.00
50322;BME280;36227;53.366;-1.426;2022-10-04T05:37:56;75436.58;;;-215.87;100.00
50322;BME280;36227;53.366;-1.426;2022-10-04T05:40:32;75432.54;;;-216.35;100.00
50322;BME280;36227;53.366;-1.426;2022-10-04T05:42:40;75482.82;;;-215.39;100.00
50322;BME280;36227;53.366;-1.426;2022-10-04T05:45:11;75442.90;;;-215.87;100.00
50322;BME280;36227;53.366;-1.426;2022-10-04T05:47:30;75400.20;;;-216.11;100.00
50322;BME280;36227;53.366;-1.426;2022-10-04T05:49:56;75382.26;;;-216.83;100.00
50322;BME280;36227;53.366;-1.426;2022-10-04T05:52:28;75371.78;;;-216.35;100.00
50322;BME280;36227;53.366;-1.426;2022-10-04T05:54:45;75346.64;;;-216.35;100.00
50322;BME280;36227;53.366;-1.426;2022-10-04T05:57:21;75361.80;;;-216.11;100.00
50322;BME280;36227;53.366;-1.426;2022-10-04T05:59:44;75385.67;;;-215.87;100.00
50322;BME280;36227;53.366;-1.426;2022-10-04T06:02:08;75316.83;;;-216.35;100.00
50322;BME280;36227;53.366;-1.426;2022-10-04T06:04:41;75331.61;;;-216.11;100.00
50322;BME280;36227;53.366;-1.426;2022-10-04T06:06:55;75337.80;;;-215.87;100.00
50322;BME280;36227;53.366;-1.426;2022-10-04T06:09:28;75329.08;;;-216.11;100.00
50322;BME280;36227;53.366;-1.426;2022-10-04T06:11:50;75285.88;;;-216.59;100.00
50322;BME280;36227;53.366;-1.426;2022-10-04T06:16:43;75293.96;;;-216.83;100.00
50322;BME280;36227;53.366;-1.426;2022-10-04T06:19:12;75298.39;;;-216.83;100.00
50322;BME280;36227;53.366;-1.426;2022-10-04T06:21:23;75356.11;;;-216.11;100.00
50322;BME280;36227;53.366;-1.426;2022-10-04T06:23:53;75358.64;;;-216.35;100.00
50322;BME280;36227;53.366;-1.426;2022-10-04T06:26:17;75302.05;;;-216.35;100.00
50322;BME280;36227;53.366;-1.426;2022-10-04T06:28:41;75253.42;;;-216.83;100.00
50322;BME280;36227;53.366;-1.426;2022-10-04T06:31:18;75263.65;;;-216.59;100.00
50322;BME280;36227;53.366;-1.426;2022-10-04T06:36:09;75332.87;;;-216.35;100.00
50322;BME280;36227;53.366;-1.426;2022-10-04T06:38:26;75338.68;;;-216.83;100.00
50322;BME280;36227;53.366;-1.426;2022-10-04T06:40:54;75312.41;;;-216.35;100.00
50322;BME280;36227;53.366;-1.426;2022-10-04T06:43:20;75286.76;;;-216.11;100.00
50322;BME280;36227;53.366;-1.426;2022-10-04T06:45:46;75323.27;;;-216.35;100.00
50322;BME280;36227;53.366;-1.426;2022-10-04T06:50:30;75317.08;;;-216.35;100.00
50322;BME280;36227;53.366;-1.426;2022-10-04T06:53:01;75242.68;;;-216.35;100.00
50322;BME280;36227;53.366;-1.426;2022-10-04T06:55:28;75328.70;;;-216.11;100.00
50322;BME280;36227;53.366;-1.426;2022-10-04T06:57:56;75299.65;;;-216.35;100.00
50322;BME280;36227;53.366;-1.426;2022-10-04T07:00:13;75295.86;;;-216.83;100.00
50322;BME280;36227;53.366;-1.426;2022-10-04T07:02:34;75348.41;;;-216.35;100.00
50322;BME280;36227;53.366;-1.426;2022-10-04T07:04:59;75357.00;;;-216.11;100.00
50322;BME280;36227;53.366;-1.426;2022-10-04T07:07:29;75400.71;;;-215.39;100.00
50322;BME280;36227;53.366;-1.426;2022-10-04T07:09:46;75382.26;;;-215.63;100.00
50322;BME280;36227;53.366;-1.426;2022-10-04T07:12:12;75415.11;;;-215.39;100.00
50322;BME280;36227;53.366;-1.426;2022-10-04T07:14:42;75381.50;;;-215.63;100.00
50322;BME280;36227;53.366;-1.426;2022-10-04T07:17:03;75343.10;;;-215.63;100.00
50322;BME280;36227;53.366;-1.426;2022-10-04T07:19:32;75367.36;;;-215.39;100.00
50322;BME280;36227;53.366;-1.426;2022-10-04T07:21:58;75387.95;;;-215.39;100.00
50322;BME280;36227;53.366;-1.426;2022-10-04T07:24:22;75375.31;;;-216.35;100.00
50322;BME280;36227;53.366;-1.426;2022-10-04T07:26:45;75393.25;;;-215.63;100.00
50322;BME280;36227;53.366;-1.426;2022-10-04T07:29:14;75398.81;;;-215.39;100.00
50322;BME280;36227;53.366;-1.426;2022-10-04T07:31:33;75344.37;;;-215.87;100.00
50322;BME280;36227;53.366;-1.426;2022-10-04T07:34:00;75396.54;;;-215.15;100.00
50322;BME280;36227;53.366;-1.426;2022-10-04T07:36:27;75405.76;;;-215.39;100.00
50322;BME280;36227;53.366;-1.426;2022-10-04T07:38:52;75411.32;;;-214.91;100.00
50322;BME280;36227;53.366;-1.426;2022-10-04T07:41:20;75442.01;;;-214.91;100.00
50322;BME280;36227;53.366;-1.426;2022-10-04T07:43:47;75364.20;;;-215.39;100.00
50322;BME280;36227;53.366;-1.426;2022-10-04T07:46:11;75397.42;;;-215.39;100.00
50322;BME280;36227;53.366;-1.426;2022-10-04T07:48:29;75422.81;;;-215.87;100.00
50322;BME280;36227;53.366;-1.426;2022-10-04T07:51:01;75443.28;;;-215.15;100.00
50322;BME280;36227;53.366;-1.426;2022-10-04T07:53:21;75446.81;;;-215.15;100.00
50322;BME280;36227;53.366;-1.426;2022-10-04T07:55:51;75388.83;;;-215.39;100.00
50322;BME280;36227;53.366;-1.426;2022-10-04T07:58:19;75422.56;;;-214.91;100.00
50322;BME280;36227;53.366;-1.426;2022-10-04T08:00:42;75388.20;;;-215.15;100.00
50322;BME280;36227;53.366;-1.426;2022-10-04T08:03:13;75391.86;;;-215.39;100.00
50322;BME280;36227;53.366;-1.426;2022-10-04T08:05:28;75369.50;;;-214.91;100.00
50322;BME280;36227;53.366;-1.426;2022-10-04T08:08:05;75348.91;;;-215.15;100.00
50322;BME280;36227;53.366;-1.426;2022-10-04T08:10:22;75372.28;;;-215.39;100.00
50322;BME280;36227;53.366;-1.426;2022-10-04T08:12:47;75380.37;;;-215.39;100.00
50322;BME280;36227;53.366;-1.426;2022-10-04T08:15:22;75350.18;;;-215.39;100.00
50322;BME280;36227;53.366;-1.426;2022-10-04T08:17:47;75390.35;;;-214.91;100.00
50322;BME280;36227;53.366;-1.426;2022-10-04T08:20:02;75341.84;;;-215.39;100.00
50322;BME280;36227;53.366;-1.426;2022-10-04T08:22:31;75323.27;;;-215.39;100.00
50322;BME280;36227;53.366;-1.426;2022-10-04T08:24:57;75334.13;;;-215.39;100.00
50322;BME280;36227;53.366;-1.426;2022-10-04T08:27:25;75328.83;;;-215.15;100.00
50322;BME280;36227;53.366;-1.426;2022-10-04T08:29:49;75309.12;;;-215.39;100.00
50322;BME280;36227;53.366;-1.426;2022-10-04T08:32:07;75339.19;;;-215.15;100.00
50322;BME280;36227;53.366;-1.426;2022-10-04T08:34:37;75338.56;;;-214.91;100.00
50322;BME280;36227;53.366;-1.426;2022-10-04T08:37:02;75340.32;;;-215.63;100.00
50322;BME280;36227;53.366;-1.426;2022-10-04T08:39:29;75350.68;;;-215.39;100.00
50322;BME280;36227;53.366;-1.426;2022-10-04T08:41:59;75335.90;;;-215.39;100.00
50322;BME280;36227;53.366;-1.426;2022-10-04T08:44:28;75296.24;;;-215.39;100.00
50322;BME280;36227;53.366;-1.426;2022-10-04T08:51:40;75280.58;;;-215.15;100.00
50322;BME280;36227;53.366;-1.426;2022-10-04T08:56:20;75277.42;;;-215.39;100.00
50322;BME280;36227;53.366;-1.426;2022-10-04T08:59:02;75278.68;;;-215.15;100.00
50322;BME280;36227;53.366;-1.426;2022-10-04T09:03:49;75231.56;;;-216.11;100.00
50322;BME280;36227;53.366;-1.426;2022-10-04T09:05:57;75226.01;;;-215.63;100.00
50322;BME280;36227;53.366;-1.426;2022-10-04T09:10:50;75226.39;;;-215.39;100.00
50322;BME280;36227;53.366;-1.426;2022-10-04T09:13:25;75245.21;;;-215.15;100.00
50322;BME280;36227;53.366;-1.426;2022-10-04T09:18:06;75238.01;;;-215.39;100.00
50322;BME280;36227;53.366;-1.426;2022-10-04T09:20:38;75229.16;;;-215.39;100.00
50322;BME280;36227;53.366;-1.426;2022-10-04T09:22:54;75230.30;;;-215.63;100.00
50322;BME280;36227;53.366;-1.426;2022-10-04T09:25:27;75225.88;;;-215.39;100.00
50322;BME280;36227;53.366;-1.426;2022-10-04T09:27:55;75203.27;;;-216.35;100.00
50322;BME280;36227;53.366;-1.426;2022-10-04T09:30:12;75243.44;;;-215.87;100.00
50322;BME280;36227;53.366;-1.426;2022-10-04T09:32:44;75220.07;;;-215.39;100.00
50322;BME280;36227;53.366;-1.426;2022-10-04T09:35:15;75211.99;;;-215.39;100.00
50322;BME280;36227;53.366;-1.426;2022-10-04T09:37:35;75201.88;;;-215.63;100.00
50322;BME280;36227;53.366;-1.426;2022-10-04T09:39:56;75205.67;;;-215.87;100.00
50322;BME280;36227;53.366;-1.426;2022-10-04T09:42:23;75208.83;;;-215.63;100.00
50322;BME280;36227;53.366;-1.426;2022-10-04T09:44:48;75218.93;;;-215.39;100.00
50322;BME280;36227;53.366;-1.426;2022-10-04T09:47:12;75198.34;;;-215.87;100.00
50322;BME280;36227;53.366;-1.426;2022-10-04T09:49:43;75237.63;;;-215.39;100.00
50322;BME280;36227;53.366;-1.426;2022-10-04T09:52:04;75237.50;;;-215.87;100.00
50322;BME280;36227;53.366;-1.426;2022-10-04T09:56:53;75193.16;;;-215.87;100.00
50322;BME280;36227;53.366;-1.426;2022-10-04T09:59:19;75154.64;;;-215.87;100.00
50322;BME280;36227;53.366;-1.426;2022-10-04T10:01:34;75134.81;;;-215.87;100.00
50322;BME280;36227;53.366;-1.426;2022-10-04T10:06:35;75168.91;;;-215.87;100.00
50322;BME280;36227;53.366;-1.426;2022-10-04T10:08:58;75122.30;;;-216.11;100.00
50322;BME280;36227;53.366;-1.426;2022-10-04T10:11:17;75116.24;;;-215.87;100.00
50322;BME280;36227;53.366;-1.426;2022-10-04T10:13:59;75090.85;;;-216.11;100.00
50322;BME280;36227;53.366;-1.426;2022-10-04T10:16:05;75057.76;;;-216.59;100.00
50322;BME280;36227;53.366;-1.426;2022-10-04T10:18:37;75122.30;;;-216.35;100.00
50322;BME280;36227;53.366;-1.426;2022-10-04T10:23:44;75183.44;;;-216.11;100.00
50322;BME280;36227;53.366;-1.426;2022-10-04T10:25:52;75187.48;;;-215.87;100.00
50322;BME280;36227;53.366;-1.426;2022-10-04T10:28:28;75192.15;;;-215.87;100.00
50322;BME280;36227;53.366;-1.426;2022-10-04T10:30:40;75212.36;;;-215.87;100.00
50322;BME280;36227;53.366;-1.426;2022-10-04T10:35:36;75171.06;;;-215.63;100.00
50322;BME280;36227;53.366;-1.426;2022-10-04T10:38:00;75209.08;;;-215.63;100.00
50322;BME280;36227;53.366;-1.426;2022-10-04T10:40:29;75175.23;;;-215.63;100.00
50322;BME280;36227;53.366;-1.426;2022-10-04T10:45:16;75173.08;;;-216.11;100.00
50322;BME280;36227;53.366;-1.426;2022-10-04T10:47:38;75199.99;;;-215.87;100.00
50322;BME280;36227;53.366;-1.426;2022-10-04T10:50:02;75238.76;;;-215.39;100.00
50322;BME280;36227;53.366;-1.426;2022-10-04T10:54:57;75202.64;;;-215.87;100.00
50322;BME280;36227;53.366;-1.426;2022-10-04T10:57:19;75177.75;;;-215.87;100.00
50322;BME280;36227;53.366;-1.426;2022-10-04T11:04:42;75127.99;;;-216.35;100.00
50322;BME280;36227;53.366;-1.426;2022-10-04T11:07:00;75189.63;;;-216.11;100.00
50322;BME280;36227;53.366;-1.426;2022-10-04T11:09:27;75150.72;;;-216.35;100.00
50322;BME280;36227;53.366;-1.426;2022-10-04T11:11:49;75123.82;;;-215.87;100.00
50322;BME280;36227;53.366;-1.426;2022-10-04T11:14:26;75105.12;;;-216.11;100.00
50322;BME280;36227;53.366;-1.426;2022-10-04T11:21:33;75087.82;;;-216.11;100.00
50322;BME280;36227;53.366;-1.426;2022-10-04T11:26:25;75142.76;;;-215.39;100.00
50322;BME280;36227;53.366;-1.426;2022-10-04T11:28:42;75088.96;;;-216.83;100.00
50322;BME280;36227;53.366;-1.426;2022-10-04T11:35:59;75102.72;;;-216.11;100.00
50322;BME280;36227;53.366;-1.426;2022-10-04T11:38:30;75126.85;;;-215.87;100.00
50322;BME280;36227;53.366;-1.426;2022-10-04T11:40:57;75106.13;;;-215.87;100.00
50322;BME280;36227;53.366;-1.426;2022-10-04T11:43:19;75101.59;;;-216.11;100.00
50322;BME280;36227;53.366;-1.426;2022-10-04T11:48:04;75099.82;;;-216.11;100.00
50322;BME280;36227;53.366;-1.426;2022-10-04T11:50:33;75148.45;;;-215.63;100.00
50322;BME280;36227;53.366;-1.426;2022-10-04T11:53:04;75137.96;;;-216.11;100.00
50322;BME280;36227;53.366;-1.426;2022-10-04T11:55:28;75153.12;;;-216.35;100.00
50322;BME280;36227;53.366;-1.426;2022-10-04T11:57:39;75107.52;;;-215.87;100.00
50322;BME280;36227;53.366;-1.426;2022-10-04T12:00:09;75128.74;;;-215.87;100.00
50322;BME280;36227;53.366;-1.426;2022-10-04T12:02:47;75080.87;;;-216.11;100.00
50322;BME280;36227;53.366;-1.426;2022-10-04T12:05:06;75028.96;;;-216.35;100.00
50322;BME280;36227;53.366;-1.426;2022-10-04T12:09:47;75034.39;;;-216.35;100.00
50322;BME280;36227;53.366;-1.426;2022-10-04T12:12:21;75036.16;;;-216.11;100.00
50322;BME280;36227;53.366;-1.426;2022-10-04T12:14:41;75030.85;;;-216.11;100.00
50322;BME280;36227;53.366;-1.426;2022-10-04T12:22:00;75045.76;;;-216.35;100.00
50322;BME280;36227;53.366;-1.426;2022-10-04T12:26:48;75049.17;;;-215.87;100.00
50322;BME280;36227;53.366;-1.426;2022-10-04T12:29:18;75064.58;;;-216.11;100.00
50322;BME280;36227;53.366;-1.426;2022-10-04T12:31:31;75064.07;;;-215.87;100.00
50322;BME280;36227;53.366;-1.426;2022-10-04T12:33:59;75064.83;;;-216.11;100.00
50322;BME280;36227;53.366;-1.426;2022-10-04T12:36:27;75028.45;;;-216.35;100.00
50322;BME280;36227;53.366;-1.426;2022-10-04T12:39:02;75006.22;;;-216.35;100.00
50322;BME280;36227;53.366;-1.426;2022-10-04T12:41:20;75117.38;;;-216.35;100.00
50322;BME280;36227;53.366;-1.426;2022-10-04T12:43:36;75092.87;;;-216.35;100.00
50322;BME280;36227;53.366;-1.426;2022-10-04T12:46:07;75090.60;;;-216.35;100.00
50322;BME280;36227;53.366;-1.426;2022-10-04T12:48:33;75097.67;;;-216.11;100.00
50322;BME280;36227;53.366;-1.426;2022-10-04T12:50:59;75118.13;;;-215.87;100.00
50322;BME280;36227;53.366;-1.426;2022-10-04T12:53:22;75104.62;;;-215.87;100.00
50322;BME280;36227;53.366;-1.426;2022-10-04T12:55:51;75086.93;;;-215.87;100.00
50322;BME280;36227;53.366;-1.426;2022-10-04T12:58:08;75095.14;;;-215.87;100.00
50322;BME280;36227;53.366;-1.426;2022-10-04T13:00:34;75097.17;;;-215.87;100.00
50322;BME280;36227;53.366;-1.426;2022-10-04T13:03:04;75071.02;;;-216.11;100.00
50322;BME280;36227;53.366;-1.426;2022-10-04T13:05:24;75105.50;;;-216.59;100.00
50322;BME280;36227;53.366;-1.426;2022-10-04T13:07:57;75097.67;;;-216.35;100.00
50322;BME280;36227;53.366;-1.426;2022-10-04T13:10:18;75092.74;;;-216.11;100.00
50322;BME280;36227;53.366;-1.426;2022-10-04T13:12:55;75072.03;;;-215.87;100.00
50322;BME280;36227;53.366;-1.426;2022-10-04T13:15:12;75048.54;;;-216.35;100.00
50322;BME280;36227;53.366;-1.426;2022-10-04T13:17:36;75086.18;;;-215.87;100.00
50322;BME280;36227;53.366;-1.426;2022-10-04T13:19:58;75077.71;;;-216.11;100.00
50322;BME280;36227;53.366;-1.426;2022-10-04T13:22:26;75045.50;;;-216.11;100.00